This is the latest recevied weather packets stored in our database for station/object HK4D-13. If no packets are shown the sender has not sent any weather packets the latest 10 day(s).
| Time | Temp. | Humidity | Pressure | Rain* | Wind** | Luminosity | Snow |
|---|---|---|---|---|---|---|---|
| 1787666895 | 17.22° C | 74% | 1015 hPa | 0 mm | - | - | - |
| 1787666295 | 16.67° C | 76% | 1015 hPa | 0 mm | - | - | - |
| 1787665694 | 16.67° C | 77% | 1015 hPa | 0 mm | - | - | - |
| 1787665094 | 16.67° C | 77% | 1015 hPa | 0 mm | - | - | - |
| 1787664494 | 16.11° C | 77% | 1016 hPa | 0 mm | - | - | - |
| 1787663893 | 16.11° C | 76% | 1016 hPa | 0 mm | - | - | - |
| 1787663292 | 16.11° C | 75% | 1016 hPa | 0 mm | - | - | - |
| 1787662692 | 16.11° C | 73% | 1016 hPa | 0 mm | - | - | - |
| 1787662092 | 16.11° C | 73% | 1016 hPa | 0 mm | - | - | - |
| 1787661491 | 13.33° C | 95% | 1016 hPa | 0 mm | - | - | - |
| 1787660891 | 13.33° C | 95% | 1016 hPa | 0 mm | - | - | - |
| 1787660290 | 13.33° C | 96% | 1016 hPa | 0 mm | - | - | - |
| 1787659690 | 13.33° C | 96% | 1016 hPa | 0 mm | - | - | - |
| 1787659089 | 13.33° C | 97% | 1016 hPa | 0 mm | - | - | - |
| 1787658489 | 13.33° C | 97% | 1016 hPa | 0 mm | - | - | - |
| 1787657888 | 13.33° C | 96% | 1016 hPa | 0 mm | - | - | - |
| 1787657288 | 13.33° C | 95% | 1016 hPa | 0 mm | - | - | - |
| 1787656687 | 13.33° C | 94% | 1016 hPa | 0 mm | - | - | - |
| 1787656087 | 13.89° C | 93% | 1016 hPa | 0 mm | - | - | - |
| 1787655486 | 14.44° C | 92% | 1016 hPa | 0 mm | - | - | - |
| 1787654886 | 14.44° C | 92% | 1016 hPa | 0 mm | - | - | - |
| 1787654285 | 14.44° C | 92% | 1016 hPa | 0 mm | - | - | - |
| 1787653685 | 14.44° C | 91% | 1016 hPa | 0 mm | - | - | - |
| 1787653084 | 14.44° C | 90% | 1016 hPa | 0 mm | - | - | - |
| 1787652484 | 14.44° C | 90% | 1016 hPa | 0 mm | - | - | - |
* Rain latest hour (hover to see other rain measurements)
** Current wind speed in m/s (hover to see current wind gust speed)